createdAt,value
2023-05-05T00:01:08.343Z,101188.66
2023-05-05T00:03:36.943Z,101195.06
2023-05-05T00:06:05.488Z,101188.59
2023-05-05T00:08:33.576Z,101189.53
2023-05-05T00:11:01.563Z,101192.25
2023-05-05T00:13:29.448Z,101191.44
2023-05-05T00:15:58.749Z,101183.44
2023-05-05T00:18:26.761Z,101188.00
2023-05-05T00:20:54.895Z,101179.94
2023-05-05T00:23:22.767Z,101184.41
2023-05-05T00:25:51.135Z,101179.97
2023-05-05T00:28:19.135Z,101186.31
2023-05-05T00:30:47.115Z,101188.09
2023-05-05T00:33:16.761Z,101193.47
2023-05-05T00:35:44.826Z,101179.88
2023-05-05T00:38:12.822Z,101177.09
2023-05-05T00:40:40.773Z,101174.25
2023-05-05T00:43:09.013Z,101174.22
2023-05-05T00:45:39.204Z,101174.09
2023-05-05T00:48:08.075Z,101176.56
2023-05-05T00:50:38.640Z,101168.19
2023-05-05T00:53:07.842Z,101166.22
2023-05-05T00:55:36.798Z,101176.03
2023-05-05T00:58:05.199Z,101169.75
2023-05-05T01:00:33.155Z,101167.91
2023-05-05T01:03:01.426Z,101176.03
2023-05-05T01:05:38.554Z,101168.91
2023-05-05T01:08:28.950Z,101173.56
2023-05-05T01:11:03.166Z,101175.41
2023-05-05T01:13:38.767Z,101178.22
2023-05-05T01:16:16.171Z,101183.75
2023-05-05T01:18:54.538Z,101182.97
2023-05-05T01:21:28.237Z,101180.50
2023-05-05T01:24:14.310Z,101178.81
2023-05-05T01:27:07.704Z,101186.28
2023-05-05T01:30:03.299Z,101186.44
2023-05-05T01:32:36.960Z,101186.66
2023-05-05T01:35:14.950Z,101179.66
2023-05-05T01:37:47.309Z,101180.69
2023-05-05T01:40:16.550Z,101186.22
2023-05-05T01:42:45.656Z,101194.53
2023-05-05T01:45:15.844Z,101191.97
2023-05-05T01:47:47.824Z,101191.16
2023-05-05T01:50:17.191Z,101201.09
2023-05-05T01:52:46.536Z,101192.13
2023-05-05T01:55:19.097Z,101200.25
2023-05-05T01:57:49.082Z,101198.44
2023-05-05T02:00:19.510Z,101202.06
2023-05-05T02:02:51.010Z,101203.06
2023-05-05T02:05:22.736Z,101212.25
2023-05-05T02:07:52.309Z,101217.81
2023-05-05T02:10:20.830Z,101211.66
2023-05-05T02:12:51.277Z,101227.09
2023-05-05T02:15:20.117Z,101227.22
2023-05-05T02:17:51.960Z,101226.41
2023-05-05T02:20:21.269Z,101222.84
2023-05-05T02:22:49.795Z,101232.81
2023-05-05T02:25:19.014Z,101234.63
2023-05-05T02:27:49.187Z,101235.41
2023-05-05T02:30:20.876Z,101231.81
2023-05-05T02:32:56.225Z,101236.31
2023-05-05T02:35:28.127Z,101241.75
2023-05-05T02:38:02.572Z,101240.81
2023-05-05T02:40:34.646Z,101248.03
2023-05-05T02:43:07.969Z,101241.81
2023-05-05T02:45:38.936Z,101246.38
2023-05-05T02:48:10.852Z,101247.25
2023-05-05T02:50:38.918Z,101244.63
2023-05-05T02:53:07.685Z,101255.59
2023-05-05T02:55:43.212Z,101259.28
2023-05-05T02:58:22.396Z,101253.16
2023-05-05T03:00:58.289Z,101262.22
2023-05-05T03:03:37.131Z,101258.66
2023-05-05T03:06:12.906Z,101256.09
2023-05-05T03:08:45.823Z,101263.44
2023-05-05T03:11:20.005Z,101261.75
2023-05-05T03:13:52.774Z,101256.50
2023-05-05T03:16:24.348Z,101246.72
2023-05-05T03:18:54.804Z,101262.16
2023-05-05T03:21:22.920Z,101261.41
2023-05-05T03:23:51.034Z,101260.66
2023-05-05T03:26:19.359Z,101260.75
2023-05-05T03:28:47.362Z,101254.56
2023-05-05T03:31:15.700Z,101257.50
2023-05-05T03:33:43.702Z,101251.34
2023-05-05T03:36:13.103Z,101256.00
2023-05-05T03:38:45.187Z,101259.69
2023-05-05T03:41:13.111Z,101252.66
2023-05-05T03:43:41.426Z,101258.19
2023-05-05T03:46:10.292Z,101259.06
2023-05-05T03:48:38.288Z,101257.34
2023-05-05T03:51:06.165Z,101258.25
2023-05-05T03:53:35.699Z,101250.28
2023-05-05T03:56:03.576Z,101253.94
2023-05-05T03:58:31.420Z,101259.47
2023-05-05T04:00:59.288Z,101258.69
2023-05-05T04:03:27.530Z,101261.47
2023-05-05T04:05:55.954Z,101260.72
2023-05-05T04:08:23.704Z,101267.94
2023-05-05T04:10:53.143Z,101271.69
2023-05-05T04:13:21.048Z,101282.69
2023-05-05T04:15:48.917Z,101281.78
2023-05-05T04:18:16.740Z,101295.25
2023-05-05T04:20:44.583Z,101288.94
2023-05-05T04:23:12.461Z,101294.34
2023-05-05T04:25:40.778Z,101298.78
2023-05-05T04:28:10.166Z,101305.88
2023-05-05T04:30:38.135Z,101307.63
2023-05-05T04:33:06.216Z,101303.06
2023-05-05T04:35:34.158Z,101301.16
2023-05-05T04:38:02.235Z,101307.28
2023-05-05T04:40:30.056Z,101314.38
2023-05-05T04:42:57.996Z,101318.69
2023-05-05T04:45:27.522Z,101314.97
2023-05-05T04:47:55.442Z,101318.47
2023-05-05T04:50:23.349Z,101312.16
2023-05-05T04:52:52.695Z,101315.72
2023-05-05T04:55:20.940Z,101322.97
2023-05-05T04:57:48.783Z,101333.81
2023-05-05T05:00:17.089Z,101327.53
2023-05-05T05:02:46.472Z,101329.34
2023-05-05T05:05:14.356Z,101338.38
2023-05-05T05:07:42.314Z,101334.75
2023-05-05T05:10:11.146Z,101337.50
2023-05-05T05:12:39.273Z,101334.81
2023-05-05T05:15:08.566Z,101339.25
2023-05-05T05:17:36.791Z,101340.00
2023-05-05T05:20:07.843Z,101342.59
2023-05-05T05:22:38.346Z,101346.06
2023-05-05T05:25:06.996Z,101344.03
2023-05-05T05:27:35.084Z,101357.38
2023-05-05T05:30:03.216Z,101360.03
2023-05-05T05:32:31.658Z,101363.66
2023-05-05T05:35:08.694Z,101363.56
2023-05-05T05:37:36.796Z,101353.59
2023-05-05T05:40:06.097Z,101364.31
2023-05-05T05:42:34.215Z,101366.88
2023-05-05T05:45:02.239Z,101368.53
2023-05-05T05:47:30.184Z,101361.94
2023-05-05T05:49:58.085Z,101366.13
2023-05-05T05:52:27.320Z,101361.31
2023-05-05T05:54:55.337Z,101376.38
2023-05-05T05:57:24.701Z,101364.44
2023-05-05T05:59:53.915Z,101360.72
2023-05-05T06:02:24.356Z,101369.66
2023-05-05T06:04:52.615Z,101369.47
2023-05-05T06:07:20.673Z,101365.63
2023-05-05T06:09:50.630Z,101366.34
2023-05-05T06:12:18.604Z,101359.97
2023-05-05T06:14:46.387Z,101367.09
2023-05-05T06:17:14.195Z,101368.03
2023-05-05T06:19:42.217Z,101361.53
2023-05-05T06:22:10.099Z,101364.84
2023-05-05T06:24:38.161Z,101371.78
2023-05-05T06:27:07.647Z,101370.66
2023-05-05T06:29:35.617Z,101368.59
2023-05-05T06:32:03.841Z,101364.81
2023-05-05T06:34:31.828Z,101361.91
2023-05-05T06:36:59.669Z,101366.22
2023-05-05T06:39:27.478Z,101359.72
2023-05-05T06:41:55.659Z,101370.38
2023-05-05T06:44:25.155Z,101374.81
2023-05-05T06:46:53.224Z,101387.34
2023-05-05T06:49:21.133Z,101386.34
2023-05-05T06:51:49.030Z,101396.06
2023-05-05T06:54:16.942Z,101395.03
2023-05-05T06:56:44.785Z,101394.94
2023-05-05T06:59:12.905Z,101398.59
2023-05-05T07:01:42.234Z,101416.59
2023-05-05T07:04:10.089Z,101400.28
2023-05-05T07:06:38.132Z,101403.78
2023-05-05T07:09:09.116Z,101413.88
2023-05-05T07:11:37.992Z,101416.59
2023-05-05T07:14:06.284Z,101420.44
2023-05-05T07:16:34.763Z,101407.75
2023-05-05T07:19:05.515Z,101413.88
2023-05-05T07:21:34.628Z,101410.81
2023-05-05T07:24:03.859Z,101418.69
2023-05-05T07:26:31.930Z,101422.28
2023-05-05T07:28:59.834Z,101424.72
2023-05-05T07:31:27.712Z,101429.88
2023-05-05T07:33:55.574Z,101429.44
2023-05-05T07:36:24.871Z,101434.50
2023-05-05T07:38:52.693Z,101429.72
2023-05-05T07:41:20.560Z,101428.72
2023-05-05T07:43:48.403Z,101427.63
2023-05-05T07:46:16.398Z,101426.38
2023-05-05T07:48:44.493Z,101427.22
2023-05-05T07:51:13.493Z,101426.16
2023-05-05T07:53:43.613Z,101424.88
2023-05-05T07:56:11.561Z,101421.31
2023-05-05T07:58:39.349Z,101431.53
2023-05-05T08:01:10.885Z,101434.59
2023-05-05T08:03:39.119Z,101432.19
2023-05-05T08:06:09.672Z,101438.94
2023-05-05T08:08:38.083Z,101434.84
2023-05-05T08:11:07.938Z,101437.28
2023-05-05T08:13:35.899Z,101433.38
2023-05-05T08:16:04.316Z,101434.00
2023-05-05T08:18:32.297Z,101433.69
2023-05-05T08:21:00.186Z,101438.47
2023-05-05T08:23:28.009Z,101436.22
2023-05-05T08:25:55.934Z,101435.31
2023-05-05T08:28:25.163Z,101437.28
2023-05-05T08:30:53.038Z,101443.72
2023-05-05T08:33:21.017Z,101440.25
2023-05-05T08:35:49.829Z,101428.09
2023-05-05T08:38:19.145Z,101433.94
2023-05-05T08:40:47.091Z,101437.31
2023-05-05T08:43:15.898Z,101435.25
2023-05-05T08:45:46.221Z,101434.31
2023-05-05T08:48:14.631Z,101438.84
2023-05-05T08:50:46.269Z,101442.19
2023-05-05T08:53:18.512Z,101439.34
2023-05-05T08:55:51.335Z,101430.47
2023-05-05T08:58:19.598Z,101435.75
2023-05-05T09:00:49.250Z,101429.75
2023-05-05T09:03:17.868Z,101436.88
2023-05-05T09:05:46.076Z,101434.22
2023-05-05T09:08:14.307Z,101435.44
2023-05-05T09:10:43.193Z,101433.66
2023-05-05T09:13:11.508Z,101435.88
2023-05-05T09:15:41.418Z,101436.03
2023-05-05T09:18:12.211Z,101435.28
2023-05-05T09:20:41.695Z,101442.13
2023-05-05T09:23:11.359Z,101440.72
2023-05-05T09:25:41.567Z,101449.00
2023-05-05T09:28:11.028Z,101449.25
2023-05-05T09:30:39.638Z,101455.09
2023-05-05T09:33:07.501Z,101446.53
2023-05-05T09:35:52.251Z,101448.25
2023-05-05T09:38:20.805Z,101440.50
2023-05-05T09:40:50.610Z,101443.38
2023-05-05T09:43:19.591Z,101440.84
2023-05-05T09:45:48.754Z,101434.38
2023-05-05T09:48:27.199Z,101439.69
2023-05-05T09:50:57.078Z,101438.41
2023-05-05T09:53:25.301Z,101444.06
2023-05-05T09:55:57.385Z,101443.22
2023-05-05T09:58:26.842Z,101435.66
2023-05-05T10:00:58.442Z,101441.66
2023-05-05T10:03:32.085Z,101437.91
2023-05-05T10:06:02.810Z,101439.00
2023-05-05T10:08:35.426Z,101446.31
2023-05-05T10:11:07.017Z,101435.75
2023-05-05T10:13:37.668Z,101429.63
2023-05-05T10:16:09.659Z,101431.91
2023-05-05T10:18:38.006Z,101428.22
2023-05-05T10:21:08.492Z,101425.31
2023-05-05T10:23:40.348Z,101422.34
2023-05-05T10:26:11.421Z,101411.56
2023-05-05T10:28:45.000Z,101403.31
2023-05-05T10:31:25.833Z,101400.09
2023-05-05T10:34:01.483Z,101401.81
2023-05-05T10:36:31.863Z,101403.16
2023-05-05T10:39:01.537Z,101407.06
2023-05-05T10:41:30.864Z,101394.84
2023-05-05T10:44:02.866Z,101393.38
2023-05-05T10:46:35.489Z,101396.69
2023-05-05T10:49:13.075Z,101377.91
2023-05-05T10:51:51.165Z,101401.31
2023-05-05T10:54:38.605Z,101378.75
2023-05-05T10:57:11.249Z,101373.38
2023-05-05T10:59:43.684Z,101370.19
2023-05-05T11:02:24.949Z,101361.22
2023-05-05T11:05:09.789Z,101366.28
2023-05-05T11:07:39.457Z,101371.22
2023-05-05T11:10:08.899Z,101361.13
2023-05-05T11:13:06.747Z,101358.34
2023-05-05T11:15:43.804Z,101358.75
2023-05-05T11:18:35.914Z,101353.25
2023-05-05T11:21:17.861Z,101350.84
2023-05-05T11:23:52.029Z,101348.50
2023-05-05T11:26:36.593Z,101339.22
2023-05-05T11:29:06.468Z,101340.59
2023-05-05T11:31:34.683Z,101334.31
2023-05-05T11:34:31.213Z,101334.31
2023-05-05T11:37:02.589Z,101332.75
2023-05-05T11:39:41.503Z,101336.25
2023-05-05T11:42:25.986Z,101325.78
2023-05-05T11:44:55.203Z,101333.53
2023-05-05T11:47:33.256Z,101334.13
2023-05-05T11:50:18.099Z,101328.84
2023-05-05T11:52:46.654Z,101339.31
2023-05-05T11:55:21.381Z,101329.88
2023-05-05T11:57:49.716Z,101333.19
2023-05-05T12:00:18.432Z,101329.66
2023-05-05T12:02:46.484Z,101333.50
2023-05-05T12:05:20.966Z,101334.72
2023-05-05T12:07:49.046Z,101336.13
2023-05-05T12:10:25.153Z,101345.50
2023-05-05T12:12:56.025Z,101344.16
2023-05-05T12:15:33.696Z,101348.56
2023-05-05T12:18:03.409Z,101347.72
2023-05-05T12:20:33.376Z,101350.66
2023-05-05T12:23:02.733Z,101346.09
2023-05-05T12:25:38.527Z,101339.34
2023-05-05T12:28:07.395Z,101349.28
2023-05-05T12:30:35.973Z,101345.06
2023-05-05T12:33:05.191Z,101346.97
2023-05-05T12:35:36.217Z,101353.38
2023-05-05T12:38:04.608Z,101353.25
2023-05-05T12:40:51.839Z,101355.56
2023-05-05T12:43:27.162Z,101348.72
2023-05-05T12:46:06.562Z,101361.59
2023-05-05T12:48:34.946Z,101358.78
2023-05-05T12:51:17.365Z,101351.91
2023-05-05T12:53:46.346Z,101358.09
2023-05-05T12:56:40.848Z,101353.06
2023-05-05T12:59:11.221Z,101358.22
2023-05-05T13:01:50.961Z,101360.47
2023-05-05T13:04:21.084Z,101354.53
2023-05-05T13:06:54.492Z,101358.38
2023-05-05T13:09:26.977Z,101354.06
2023-05-05T13:11:56.781Z,101345.91
2023-05-05T13:14:26.788Z,101348.53
2023-05-05T13:16:54.925Z,101346.84
2023-05-05T13:19:26.150Z,101338.66
2023-05-05T13:21:54.509Z,101347.16
2023-05-05T13:24:38.160Z,101355.38
2023-05-05T13:27:15.706Z,101341.22
2023-05-05T13:29:45.762Z,101355.50
2023-05-05T13:32:17.638Z,101357.34
2023-05-05T13:34:54.417Z,101355.03
2023-05-05T13:37:42.637Z,101357.91
2023-05-05T13:40:13.529Z,101366.72
2023-05-05T13:42:45.812Z,101356.78
2023-05-05T13:45:14.374Z,101352.13
2023-05-05T13:47:45.345Z,101350.34
2023-05-05T13:50:13.530Z,101353.47
2023-05-05T13:52:42.016Z,101361.81
2023-05-05T13:55:11.911Z,101365.91
2023-05-05T13:57:39.944Z,101363.22
2023-05-05T14:00:11.874Z,101368.06
2023-05-05T14:02:40.051Z,101364.44
2023-05-05T14:05:09.884Z,101367.28
2023-05-05T14:07:38.401Z,101379.56
2023-05-05T14:10:07.719Z,101394.31
2023-05-05T14:12:36.500Z,101380.94
2023-05-05T14:15:08.580Z,101390.13
2023-05-05T14:17:42.317Z,101393.13
2023-05-05T14:20:11.524Z,101384.97
2023-05-05T14:22:42.383Z,101400.31
2023-05-05T14:25:10.755Z,101425.19
2023-05-05T14:27:38.972Z,101439.06
2023-05-05T14:30:08.602Z,101440.38
2023-05-05T14:32:38.801Z,101449.19
2023-05-05T14:35:08.281Z,101432.41
2023-05-05T14:37:37.595Z,101434.78
2023-05-05T14:40:06.926Z,101427.28
2023-05-05T14:42:42.550Z,101427.88
2023-05-05T14:45:11.351Z,101423.78
2023-05-05T14:47:40.844Z,101424.13
2023-05-05T14:50:10.052Z,101432.69
2023-05-05T14:52:39.328Z,101430.47
2023-05-05T14:55:08.965Z,101427.56
2023-05-05T14:57:39.124Z,101421.78
2023-05-05T15:00:08.428Z,101425.19
2023-05-05T15:02:38.116Z,101425.69
2023-05-05T15:05:09.051Z,101419.25
2023-05-05T15:07:42.434Z,101426.84
2023-05-05T15:10:11.656Z,101413.38
2023-05-05T15:12:39.766Z,101421.63
2023-05-05T15:15:11.443Z,101425.28
2023-05-05T15:17:41.850Z,101428.19
2023-05-05T15:20:13.272Z,101425.09
2023-05-05T15:22:41.696Z,101430.00
2023-05-05T15:25:15.067Z,101434.50
2023-05-05T15:27:43.229Z,101428.97
2023-05-05T15:30:14.019Z,101430.41
2023-05-05T15:32:42.085Z,101424.78
2023-05-05T15:35:12.132Z,101428.31
2023-05-05T15:37:42.517Z,101431.44
2023-05-05T15:40:13.790Z,101429.41
2023-05-05T15:42:43.119Z,101439.38
2023-05-05T15:45:19.082Z,101435.72
2023-05-05T15:47:48.081Z,101438.66
2023-05-05T15:50:18.344Z,101444.88
2023-05-05T15:52:48.148Z,101448.31
2023-05-05T15:55:19.854Z,101440.03
2023-05-05T15:57:47.792Z,101435.59
2023-05-05T16:00:16.794Z,101437.63
2023-05-05T16:02:59.062Z,101431.19
2023-05-05T16:05:31.669Z,101437.06
2023-05-05T16:08:00.512Z,101434.44
2023-05-05T16:10:28.943Z,101423.91
2023-05-05T16:12:57.557Z,101413.59
2023-05-05T16:15:25.844Z,101408.63
2023-05-05T16:17:54.188Z,101406.69
2023-05-05T16:20:24.695Z,101407.53
2023-05-05T16:22:54.176Z,101406.56
2023-05-05T16:25:23.726Z,101396.59
2023-05-05T16:27:52.151Z,101406.25
2023-05-05T16:30:20.435Z,101400.59
2023-05-05T16:32:51.290Z,101400.31
2023-05-05T16:35:19.597Z,101404.53
2023-05-05T16:37:47.814Z,101404.34
2023-05-05T16:40:17.257Z,101396.94
2023-05-05T16:42:46.425Z,101394.31
2023-05-05T16:45:18.102Z,101390.09
2023-05-05T16:47:46.106Z,101394.84
2023-05-05T16:50:14.287Z,101389.56
2023-05-05T16:52:42.346Z,101396.09
2023-05-05T16:55:11.178Z,101389.94
2023-05-05T16:57:41.083Z,101399.25
2023-05-05T17:00:12.280Z,101406.75
2023-05-05T17:02:40.213Z,101412.16
2023-05-05T17:05:09.089Z,101405.81
2023-05-05T17:07:38.892Z,101404.81
2023-05-05T17:10:08.266Z,101402.94
2023-05-05T17:12:36.444Z,101402.03
2023-05-05T17:15:06.981Z,101395.75
2023-05-05T17:17:37.017Z,101406.56
2023-05-05T17:20:08.467Z,101403.00
2023-05-05T17:22:39.845Z,101419.13
2023-05-05T17:25:09.016Z,101411.00
2023-05-05T17:27:40.877Z,101412.84
2023-05-05T17:30:11.234Z,101404.81
2023-05-05T17:32:39.160Z,101411.06
2023-05-05T17:35:08.150Z,101409.25
2023-05-05T17:37:36.733Z,101414.56
2023-05-05T17:40:05.375Z,101421.81
2023-05-05T17:42:34.031Z,101428.13
2023-05-05T17:45:01.913Z,101427.16
2023-05-05T17:47:31.302Z,101423.66
2023-05-05T17:49:59.466Z,101427.34
2023-05-05T17:52:27.289Z,101424.78
2023-05-05T17:54:55.181Z,101432.84
2023-05-05T17:57:23.140Z,101430.19
2023-05-05T17:59:53.534Z,101429.31
2023-05-05T18:02:21.956Z,101425.75
2023-05-05T18:04:51.304Z,101425.91
2023-05-05T18:07:19.175Z,101430.50
2023-05-05T18:09:51.472Z,101434.25
2023-05-05T18:12:19.488Z,101429.78
2023-05-05T18:14:47.453Z,101429.84
2023-05-05T18:17:15.530Z,101426.28
2023-05-05T18:19:46.625Z,101429.19
2023-05-05T18:22:18.094Z,101422.00
2023-05-05T18:24:47.323Z,101423.88
2023-05-05T18:27:17.670Z,101424.81
2023-05-05T18:29:45.587Z,101427.69
2023-05-05T18:32:13.464Z,101434.16
2023-05-05T18:34:41.456Z,101442.28
2023-05-05T18:37:13.270Z,101430.69
2023-05-05T18:39:44.027Z,101446.06
2023-05-05T18:42:13.072Z,101440.75
2023-05-05T18:44:41.529Z,101439.97
2023-05-05T18:47:11.616Z,101440.03
2023-05-05T18:49:39.553Z,101440.19
2023-05-05T18:52:07.510Z,101439.66
2023-05-05T18:54:37.805Z,101429.13
2023-05-05T18:57:07.528Z,101446.22
2023-05-05T18:59:35.475Z,101444.41
2023-05-05T19:02:03.402Z,101452.72
2023-05-05T19:04:32.189Z,101447.38
2023-05-05T19:07:00.328Z,101440.28
2023-05-05T19:09:29.086Z,101441.38
2023-05-05T19:11:56.952Z,101443.41
2023-05-05T19:14:26.318Z,101437.06
2023-05-05T19:16:55.757Z,101435.28
2023-05-05T19:19:23.816Z,101438.88
2023-05-05T19:21:51.884Z,101446.25
2023-05-05T19:24:19.831Z,101457.28
2023-05-05T19:26:47.641Z,101453.72
2023-05-05T19:29:16.324Z,101455.50
2023-05-05T19:31:45.684Z,101463.56
2023-05-05T19:34:13.576Z,101470.91
2023-05-05T19:36:41.470Z,101468.25
2023-05-05T19:39:09.289Z,101479.06
2023-05-05T19:41:37.091Z,101473.81
2023-05-05T19:44:05.162Z,101481.09
2023-05-05T19:46:33.294Z,101479.28
2023-05-05T19:49:10.980Z,101486.53
2023-05-05T19:51:39.702Z,101482.97
2023-05-05T19:54:07.665Z,101480.31
2023-05-05T19:56:35.668Z,101483.94
2023-05-05T19:59:06.277Z,101476.84
2023-05-05T20:01:37.071Z,101481.38
2023-05-05T20:04:06.654Z,101476.97
2023-05-05T20:06:36.270Z,101477.91
2023-05-05T20:09:04.871Z,101479.97
2023-05-05T20:11:33.281Z,101487.28
2023-05-05T20:14:01.402Z,101481.94
2023-05-05T20:16:29.336Z,101481.00
2023-05-05T20:18:57.318Z,101486.38
2023-05-05T20:21:27.272Z,101474.78
2023-05-05T20:23:55.629Z,101474.81
2023-05-05T20:26:24.461Z,101476.63
2023-05-05T20:28:52.445Z,101477.78
2023-05-05T20:31:20.444Z,101472.41
2023-05-05T20:33:48.390Z,101474.19
2023-05-05T20:36:16.748Z,101465.28
2023-05-05T20:38:46.245Z,101461.84
2023-05-05T20:41:14.332Z,101464.53
2023-05-05T20:43:42.692Z,101463.63
2023-05-05T20:46:13.307Z,101463.66
2023-05-05T20:48:42.937Z,101468.13
2023-05-05T20:51:11.693Z,101475.38
2023-05-05T20:53:39.801Z,101480.00
2023-05-05T20:56:09.294Z,101476.47
2023-05-05T20:58:37.289Z,101475.53
2023-05-05T21:01:05.224Z,101465.69
2023-05-05T21:03:33.216Z,101472.88
2023-05-05T21:06:01.108Z,101465.72
2023-05-05T21:08:31.998Z,101474.69
2023-05-05T21:11:00.272Z,101471.09
2023-05-05T21:13:53.859Z,101469.38
2023-05-05T21:16:43.120Z,101473.91
2023-05-05T21:19:22.818Z,101474.81
2023-05-05T21:22:15.291Z,101478.41
2023-05-05T21:25:22.771Z,101474.88
2023-05-05T21:28:07.797Z,101475.06
2023-05-05T21:31:19.739Z,101472.53
2023-05-05T21:34:05.467Z,101480.63
2023-05-05T21:37:06.270Z,101469.91
2023-05-05T21:42:19.093Z,101481.53
2023-05-05T21:44:46.971Z,101478.81
2023-05-05T21:47:16.300Z,101477.88
2023-05-05T21:49:44.152Z,101482.41
2023-05-05T21:52:11.869Z,101481.53
2023-05-05T21:54:39.682Z,101482.41
2023-05-05T21:57:07.459Z,101480.59
2023-05-05T21:59:35.952Z,101472.53
2023-05-05T22:02:03.721Z,101473.44
2023-05-05T22:04:32.854Z,101473.44
2023-05-05T22:07:00.900Z,101464.56
2023-05-05T22:09:28.578Z,101473.53
2023-05-05T22:11:56.341Z,101464.59
2023-05-05T22:14:24.233Z,101465.50
2023-05-05T22:16:52.082Z,101471.78
2023-05-05T22:19:19.850Z,101471.81
2023-05-05T22:21:49.005Z,101472.72
2023-05-05T22:24:16.817Z,101480.78
2023-05-05T22:26:44.549Z,101485.31
2023-05-05T22:29:12.411Z,101481.75
2023-05-05T22:31:40.270Z,101477.28
2023-05-05T22:34:08.759Z,101482.69
2023-05-05T22:36:36.767Z,101478.28
2023-05-05T22:39:05.896Z,101480.03
2023-05-05T22:41:33.602Z,101480.94
2023-05-05T22:44:01.372Z,101485.41
2023-05-05T22:46:29.223Z,101488.06
2023-05-05T22:48:56.997Z,101480.94
2023-05-05T22:51:24.848Z,101487.25
2023-05-05T22:53:54.394Z,101492.69
2023-05-05T22:56:23.566Z,101491.78
2023-05-05T22:58:51.312Z,101489.09
2023-05-05T23:01:19.184Z,101482.88
2023-05-05T23:03:46.949Z,101475.72
2023-05-05T23:06:14.749Z,101473.94
2023-05-05T23:08:42.766Z,101485.59
2023-05-05T23:11:10.541Z,101467.72
2023-05-05T23:13:39.670Z,101470.44
2023-05-05T23:16:07.886Z,101467.75
2023-05-05T23:18:38.750Z,101469.59
2023-05-05T23:21:06.569Z,101466.06
2023-05-05T23:23:34.332Z,101475.03
2023-05-05T23:26:02.209Z,101472.41
2023-05-05T23:28:30.046Z,101480.44
2023-05-05T23:30:59.320Z,101486.75
2023-05-05T23:33:27.113Z,101482.28
2023-05-05T23:35:55.355Z,101474.22
2023-05-05T23:38:23.060Z,101484.97
2023-05-05T23:40:50.708Z,101481.41
2023-05-05T23:43:18.373Z,101482.31
2023-05-05T23:45:46.096Z,101479.66
2023-05-05T23:48:15.202Z,101481.44
2023-05-05T23:50:42.952Z,101475.16
2023-05-05T23:53:10.830Z,101469.81
2023-05-05T23:55:38.643Z,101474.34
2023-05-05T23:58:06.393Z,101471.69
